Terminal Aerodrome Forecast
Issued by NWS

Home | Current Version | Previous Version | Text Only | Print | Product List | Glossary On
Versions: 1 2 3 4 5 6 7 8 9 10 11 12 13 14 15 16 17 18 19 20 21 22 23 24 25 26 27 28 29 30 31 32 33 34 35 36 37 38 39 40 41 42
000
FTAK31 PANC 271139
TAFADU
TAF
PADU 271139Z 2712/2812 21005KT P6SM SCT035 OVC060
     FM271800 VRB03KT P6SM OVC025
      TEMPO 2802/2806 SCT025 BKN035=

USA.gov is the U.S. government's official web portal to all federal, state and local government web resources and services.